Dr.kaiyo — JD2325 — position and weather

sailwx.info

Track history (hours):
 
Tides and Currents Weather Stations Pressure Air Temp Water Temp Dewpoint Dewpoint Depression Visibility Wind Speed Wind Dir Waves Ship Positions

Dr.kaiyo

Last reported at 2016-Jun-28 04:29 UTC. Time now 2016-Jun-28 13:27 UTC.
Position N 34°39' E 135°12'.

Length 31 m.

Type: Other ship. MMSI: 431301823.

Date/timePositionNaut miles runAvg speedWind from/ knotsBaromVisibWave heightAir tempDewpointWater temp
2016-Jun-28 04:29N 34°39' E 135°12'0 0.1
2016-Jun-28 03:30N 34°39' E 135°12'7 7.4
2016-Jun-28 02:33N 34°32' E 135°09'2 1.8
2016-Jun-28 01:34N 34°34' E 135°09'7 6.1
2016-Jun-28 00:21N 34°41' E 135°13'0 0.0
2016-Jun-27 23:33N 34°41' E 135°13'2 0.1
2016-Jun-27 04:33N 34°39' E 135°12'0 0.3
2016-Jun-27 03:30N 34°39' E 135°12'7 7.0
2016-Jun-27 02:33N 34°32' E 135°10'1 1.1
2016-Jun-27 01:33N 34°33' E 135°10'8 7.6
2016-Jun-27 00:31N 34°41' E 135°13'0 0.0
2016-Jun-26 23:31N 34°41' E 135°13'  
2016-Jun-24 04:32N 34°39' E 135°12'0 0.1
2016-Jun-24 03:32N 34°39' E 135°12'0 0.4
2016-Jun-24 02:33N 34°38' E 135°12'4 3.5
2016-Jun-24 01:33N 34°36' E 135°09'6 6.1
2016-Jun-24 00:34N 34°41' E 135°13'0 0.0
2016-Jun-23 23:34N 34°41' E 135°13'5 0.3
2016-Jun-23 05:34N 34°35' E 135°11'4 3.5
2016-Jun-23 04:33N 34°32' E 135°13'5 5.2
2016-Jun-23 03:33N 34°31' E 135°19'1 1.0
2016-Jun-23 02:33N 34°31' E 135°18'10 9.9
2016-Jun-23 01:33N 34°34' E 135°07'0 0.3
2016-Jun-23 00:33N 34°34' E 135°06'9 8.3
2016-Jun-22 23:30N 34°41' E 135°12'0 0.0
2016-Jun-22 06:33N 34°42' E 135°13'1212.4
2016-Jun-22 05:33N 34°30' E 135°06'4 3.7
2016-Jun-22 04:33N 34°27' E 135°08'5 4.6
2016-Jun-22 03:24N 34°23' E 135°12'2 1.9
2016-Jun-22 02:31N 34°23' E 135°10'10 9.1
2016-Jun-22 01:28N 34°29' E 135°01'6 6.5
2016-Jun-22 00:33N 34°33' E 135°06'10 9.8
2016-Jun-21 23:33N 34°42' E 135°12'7 0.4
2016-Jun-21 05:33N 34°34' E 135°12'8 8.0
2016-Jun-21 04:33N 34°28' E 135°06'3 1.6
2016-Jun-21 02:32N 34°26' E 135°09'8 7.7
2016-Jun-21 01:33N 34°30' E 135°01'4 4.1
2016-Jun-21 00:33N 34°33' E 135°04'11 8.9
2016-Jun-20 23:22N 34°41' E 135°12'0 0.0
2016-Jun-20 05:30N 34°41' E 135°12'6 6.7
2016-Jun-20 04:33N 34°37' E 135°07'11 8.8
2016-Jun-20 03:21N 34°28' E 134°60'810.3
2016-Jun-20 02:33N 34°31' E 135°09'8 7.7
2016-Jun-20 01:31N 34°31' E 135°19'8 8.7
2016-Jun-20 00:33N 34°40' E 135°21'5 5.1
2016-Jun-19 23:33N 34°40' E 135°15'  
Track history (hours):
 
Tides and Currents Weather Stations Pressure Air Temp Water Temp Dewpoint Dewpoint Depression Visibility Wind Speed Wind Dir Waves Ship Positions

Dr.kaiyo

Last reported at 2016-Jun-28 04:29 UTC. Time now 2016-Jun-28 13:27 UTC.
Position N 34°39' E 135°12'.

Length 31 m.

Type: Other ship. MMSI: 431301823.

Date/timePositionNaut miles runAvg speedWind from/ knotsBaromVisibWave heightAir tempDewpointWater temp
2016-Jun-28 04:29N 34°39' E 135°12'0 0.1
2016-Jun-28 03:30N 34°39' E 135°12'7 7.4
2016-Jun-28 02:33N 34°32' E 135°09'2 1.8
2016-Jun-28 01:34N 34°34' E 135°09'7 6.1
2016-Jun-28 00:21N 34°41' E 135°13'0 0.0
2016-Jun-27 23:33N 34°41' E 135°13'2 0.1
2016-Jun-27 04:33N 34°39' E 135°12'0 0.3
2016-Jun-27 03:30N 34°39' E 135°12'7 7.0
2016-Jun-27 02:33N 34°32' E 135°10'1 1.1
2016-Jun-27 01:33N 34°33' E 135°10'8 7.6
2016-Jun-27 00:31N 34°41' E 135°13'0 0.0
2016-Jun-26 23:31N 34°41' E 135°13'  
2016-Jun-24 04:32N 34°39' E 135°12'0 0.1
2016-Jun-24 03:32N 34°39' E 135°12'0 0.4
2016-Jun-24 02:33N 34°38' E 135°12'4 3.5
2016-Jun-24 01:33N 34°36' E 135°09'6 6.1
2016-Jun-24 00:34N 34°41' E 135°13'0 0.0
2016-Jun-23 23:34N 34°41' E 135°13'5 0.3
2016-Jun-23 05:34N 34°35' E 135°11'4 3.5
2016-Jun-23 04:33N 34°32' E 135°13'5 5.2
2016-Jun-23 03:33N 34°31' E 135°19'1 1.0
2016-Jun-23 02:33N 34°31' E 135°18'10 9.9
2016-Jun-23 01:33N 34°34' E 135°07'0 0.3
2016-Jun-23 00:33N 34°34' E 135°06'9 8.3
2016-Jun-22 23:30N 34°41' E 135°12'0 0.0
2016-Jun-22 06:33N 34°42' E 135°13'1212.4
2016-Jun-22 05:33N 34°30' E 135°06'4 3.7
2016-Jun-22 04:33N 34°27' E 135°08'5 4.6
2016-Jun-22 03:24N 34°23' E 135°12'2 1.9
2016-Jun-22 02:31N 34°23' E 135°10'10 9.1
2016-Jun-22 01:28N 34°29' E 135°01'6 6.5
2016-Jun-22 00:33N 34°33' E 135°06'10 9.8
2016-Jun-21 23:33N 34°42' E 135°12'7 0.4
2016-Jun-21 05:33N 34°34' E 135°12'8 8.0
2016-Jun-21 04:33N 34°28' E 135°06'3 1.6
2016-Jun-21 02:32N 34°26' E 135°09'8 7.7
2016-Jun-21 01:33N 34°30' E 135°01'4 4.1
2016-Jun-21 00:33N 34°33' E 135°04'11 8.9
2016-Jun-20 23:22N 34°41' E 135°12'0 0.0
2016-Jun-20 05:30N 34°41' E 135°12'6 6.7
2016-Jun-20 04:33N 34°37' E 135°07'11 8.8
2016-Jun-20 03:21N 34°28' E 134°60'810.3
2016-Jun-20 02:33N 34°31' E 135°09'8 7.7
2016-Jun-20 01:31N 34°31' E 135°19'8 8.7
2016-Jun-20 00:33N 34°40' E 135°21'5 5.1
2016-Jun-19 23:33N 34°40' E 135°15'  

Dump ship's entire track history